Time;durP1;ratioP1;P1;durP2;ratioP2;P2;SDS_P1;SDS_P2;PMS_P1;PMS_P2;Temp;Humidity;BMP_temperature;BMP_pressure;BME280_temperature;BME280_humidity;BME280_pressure;Samples;Min_cycle;Max_cycle;Signal;HPM_P1;HPM_P2
2022/10/25 00:02:14;;;;;;;9.88;4.85;;;16.00;99.90;;;;;;4993695;28;20061;-54
2022/10/25 00:05:00;;;;;;;10.05;4.13;;;15.90;99.90;;;;;;5008969;28;20069;-57
2022/10/25 00:07:46;;;;;;;10.45;4.25;;;15.90;99.90;;;;;;5013234;28;20502;-58
2022/10/25 00:10:32;;;;;;;7.07;3.05;;;15.90;99.90;;;;;;5013006;28;20042;-52
2022/10/25 00:13:18;;;;;;;7.68;3.83;;;16.00;99.90;;;;;;5013464;28;20038;-54
2022/10/25 00:16:04;;;;;;;8.85;4.15;;;15.90;99.90;;;;;;5013445;28;20096;-54
2022/10/25 00:18:50;;;;;;;7.32;4.45;;;15.80;99.90;;;;;;5013124;28;20061;-53
2022/10/25 00:21:37;;;;;;;7.57;3.95;;;15.80;99.90;;;;;;5012565;28;20037;-55
2022/10/25 00:24:23;;;;;;;9.80;3.70;;;15.80;99.90;;;;;;4998968;28;20030;-56
2022/10/25 00:27:08;;;;;;;7.53;3.88;;;15.70;99.90;;;;;;4993713;28;20507;-58
2022/10/25 00:29:54;;;;;;;9.25;3.83;;;15.70;99.90;;;;;;4996200;28;20437;-55
2022/10/25 00:32:40;;;;;;;7.43;3.78;;;15.60;99.90;;;;;;5012714;28;20042;-53
2022/10/25 00:35:26;;;;;;;10.52;3.70;;;15.70;99.90;;;;;;5012871;28;20498;-57
2022/10/25 00:38:12;;;;;;;11.00;5.93;;;15.80;99.90;;;;;;5012856;28;20547;-53
2022/10/25 00:40:58;;;;;;;11.82;4.40;;;15.70;99.90;;;;;;5014107;28;20036;-52
2022/10/25 00:43:49;;;;;;;7.20;4.18;;;15.70;99.90;;;;;;5013242;28;20029;-54
2022/10/25 00:46:35;;;;;;;7.10;4.03;;;15.60;99.90;;;;;;5012470;28;20513;-61
2022/10/25 00:49:21;;;;;;;12.40;4.30;;;15.60;99.90;;;;;;5008340;28;20479;-55
2022/10/25 00:52:08;;;;;;;8.50;4.47;;;15.70;99.90;;;;;;4996164;28;20053;-56
2022/10/25 00:54:54;;;;;;;9.10;4.65;;;15.70;99.90;;;;;;5009551;28;20038;-55
2022/10/25 00:57:47;;;;;;;10.77;5.05;;;15.70;99.90;;;;;;5012336;28;20490;-57
2022/10/25 01:00:34;;;;;;;8.48;3.50;;;15.70;99.90;;;;;;5023442;28;20057;-52
2022/10/25 01:03:22;;;;;;;8.27;4.45;;;15.60;99.90;;;;;;5027403;28;20431;-52
2022/10/25 01:06:16;;;;;;;10.30;4.78;;;15.60;99.90;;;;;;5020908;28;20029;-55
2022/10/25 01:09:03;;;;;;;11.55;5.10;;;15.70;99.90;;;;;;5012173;28;20113;-50
2022/10/25 01:11:49;;;;;;;12.82;5.03;;;15.70;99.90;;;;;;5009610;28;20022;-56
2022/10/25 01:14:37;;;;;;;10.27;5.07;;;15.70;99.90;;;;;;5012260;28;20041;-52
2022/10/25 01:17:49;;;;;;;9.98;4.93;;;15.70;99.90;;;;;;5011305;28;20065;-52
2022/10/25 01:21:02;;;;;;;15.15;4.93;;;15.60;99.90;;;;;;4992511;28;20499;-55
2022/10/25 01:24:09;;;;;;;7.93;4.75;;;15.70;99.90;;;;;;5003738;28;20550;-54
2022/10/25 01:27:33;;;;;;;11.68;4.78;;;15.50;99.90;;;;;;5011850;28;20392;-50
2022/10/25 01:30:22;;;;;;;11.95;5.00;;;15.50;99.90;;;;;;4991332;28;20410;-51
2022/10/25 01:33:11;;;;;;;8.48;4.13;;;15.40;99.90;;;;;;4998131;28;20441;-58
2022/10/25 01:36:11;;;;;;;8.75;3.85;;;15.40;99.90;;;;;;5010627;28;20038;-52
2022/10/25 01:39:04;;;;;;;12.82;4.85;;;15.40;99.90;;;;;;5010669;28;20026;-52
2022/10/25 01:42:02;;;;;;;10.60;3.63;;;15.30;99.90;;;;;;5011420;28;20113;-49
2022/10/25 01:45:00;;;;;;;9.30;3.42;;;15.30;99.90;;;;;;5010576;28;20360;-53
2022/10/25 01:48:14;;;;;;;9.73;4.15;;;15.20;99.90;;;;;;5011029;28;20108;-55
2022/10/25 01:51:09;;;;;;;8.73;3.50;;;15.10;99.90;;;;;;5007617;28;20698;-56
2022/10/25 01:53:55;;;;;;;8.30;3.55;;;15.10;99.90;;;;;;4999439;28;20030;-55
2022/10/25 01:56:53;;;;;;;7.90;3.53;;;14.90;99.90;;;;;;5010828;28;20038;-60
2022/10/25 02:00:02;;;;;;;9.55;3.80;;;14.90;99.90;;;;;;5010681;28;20022;-57
2022/10/25 02:03:13;;;;;;;8.55;3.45;;;14.80;99.90;;;;;;5010321;28;20034;-58
2022/10/25 02:06:19;;;;;;;6.70;3.22;;;14.80;99.90;;;;;;5005560;28;20036;-54
2022/10/25 02:09:13;;;;;;;8.68;3.47;;;14.80;99.90;;;;;;4990915;28;20036;-55
2022/10/25 02:12:01;;;;;;;21.58;4.40;;;14.80;99.90;;;;;;5008353;28;20054;-52
2022/10/25 02:15:04;;;;;;;9.93;3.22;;;14.80;99.90;;;;;;5011580;28;20076;-55
2022/10/25 02:17:56;;;;;;;8.05;3.30;;;14.80;99.90;;;;;;5010381;28;20046;-57
2022/10/25 02:20:44;;;;;;;7.55;3.53;;;14.90;99.90;;;;;;5011142;28;20092;-52
2022/10/25 02:23:33;;;;;;;8.38;3.80;;;14.90;99.90;;;;;;4997767;28;20450;-52
2022/10/25 02:26:20;;;;;;;10.48;4.13;;;14.90;99.90;;;;;;5011503;28;20518;-56
2022/10/25 02:29:08;;;;;;;7.20;2.97;;;14.90;99.90;;;;;;5011113;28;20595;-52
2022/10/25 02:31:54;;;;;;;11.35;3.35;;;14.90;99.90;;;;;;5009874;28;20041;-50
2022/10/25 02:34:40;;;;;;;5.75;3.40;;;14.90;99.90;;;;;;5013270;28;20022;-53
2022/10/25 02:37:26;;;;;;;7.68;2.95;;;14.90;99.90;;;;;;5021817;28;20037;-55
2022/10/25 02:40:12;;;;;;;12.18;3.40;;;14.90;99.90;;;;;;5022315;28;20030;-55
2022/10/25 02:42:58;;;;;;;8.02;3.50;;;14.90;99.90;;;;;;4998348;28;20506;-53
2022/10/25 02:45:44;;;;;;;8.40;3.95;;;14.90;99.90;;;;;;5010643;28;20053;-54
2022/10/25 02:48:30;;;;;;;11.73;3.50;;;14.90;99.90;;;;;;4995318;28;20052;-55
2022/10/25 02:51:17;;;;;;;6.53;3.00;;;14.90;99.90;;;;;;5009317;28;20499;-51
2022/10/25 02:54:03;;;;;;;8.88;3.25;;;14.80;99.90;;;;;;5003108;28;20042;-54
2022/10/25 02:56:51;;;;;;;7.95;4.72;;;14.90;99.90;;;;;;5008780;28;20684;-55
2022/10/25 02:59:37;;;;;;;7.97;3.30;;;14.90;99.90;;;;;;5010133;28;20108;-50
2022/10/25 03:02:23;;;;;;;11.18;4.25;;;14.90;99.90;;;;;;5009794;28;20069;-57
2022/10/25 03:05:08;;;;;;;7.95;3.30;;;14.90;99.90;;;;;;4995417;28;20273;-54
2022/10/25 03:07:54;;;;;;;8.65;3.83;;;14.90;99.90;;;;;;5010599;28;20034;-53
2022/10/25 03:10:40;;;;;;;11.10;3.25;;;14.80;99.90;;;;;;5007799;28;20034;-49
2022/10/25 03:13:26;;;;;;;9.07;3.60;;;14.90;99.90;;;;;;5011282;28;20076;-58
2022/10/25 03:16:12;;;;;;;6.95;3.40;;;14.80;99.90;;;;;;5010645;28;20038;-55
2022/10/25 03:18:58;;;;;;;7.97;3.78;;;14.80;99.90;;;;;;5010631;28;20101;-50
2022/10/25 03:21:44;;;;;;;9.23;4.00;;;14.80;99.90;;;;;;4976316;28;20077;-54
2022/10/25 03:24:30;;;;;;;8.93;3.35;;;14.70;99.90;;;;;;4993469;28;20135;-54
2022/10/25 03:27:16;;;;;;;7.75;3.90;;;14.70;99.90;;;;;;5010840;28;20581;-53
2022/10/25 03:30:02;;;;;;;9.05;4.15;;;14.60;99.90;;;;;;5010362;28;20528;-51
2022/10/25 03:32:48;;;;;;;7.70;3.78;;;14.60;99.90;;;;;;5010749;28;20465;-52
2022/10/25 03:35:34;;;;;;;9.32;4.57;;;14.50;99.90;;;;;;5010417;28;20073;-55
2022/10/25 03:38:21;;;;;;;19.73;14.73;;;14.40;99.90;;;;;;5010968;28;20026;-57
2022/10/25 03:41:07;;;;;;;11.45;5.72;;;14.40;99.90;;;;;;5010053;28;20041;-57
2022/10/25 03:43:53;;;;;;;9.30;3.65;;;14.40;99.90;;;;;;5010063;28;20022;-57
2022/10/25 03:46:39;;;;;;;9.65;3.50;;;14.40;99.90;;;;;;5011630;28;20060;-53
2022/10/25 03:49:25;;;;;;;8.30;3.50;;;14.40;99.90;;;;;;5007972;28;20056;-51
2022/10/25 03:52:11;;;;;;;8.13;3.92;;;14.50;99.90;;;;;;5009211;28;20055;-50
2022/10/25 03:54:57;;;;;;;10.77;4.43;;;14.40;99.90;;;;;;5009670;28;20040;-54
2022/10/25 03:57:43;;;;;;;7.68;3.83;;;14.40;99.90;;;;;;5005193;28;20113;-53
2022/10/25 04:00:29;;;;;;;8.13;4.10;;;14.40;99.90;;;;;;4998699;28;20032;-53
2022/10/25 04:03:15;;;;;;;13.45;4.22;;;14.30;99.90;;;;;;5013109;28;20025;-51
2022/10/25 04:06:01;;;;;;;9.88;3.65;;;14.30;99.90;;;;;;5007694;28;20068;-50
2022/10/25 04:08:47;;;;;;;15.13;4.68;;;14.30;99.90;;;;;;5010203;28;20018;-50
2022/10/25 04:11:33;;;;;;;10.32;4.43;;;14.30;99.90;;;;;;4996242;28;20030;-52
2022/10/25 04:14:19;;;;;;;6.72;3.80;;;14.30;99.90;;;;;;5009593;28;20463;-52
2022/10/25 04:17:05;;;;;;;7.93;4.13;;;14.40;99.90;;;;;;5010822;28;20045;-54
2022/10/25 04:19:51;;;;;;;7.30;3.58;;;14.40;99.90;;;;;;4994477;28;20045;-57
2022/10/25 04:22:37;;;;;;;8.65;3.95;;;14.30;99.90;;;;;;5010448;28;20490;-60
2022/10/25 04:25:26;;;;;;;9.65;4.10;;;14.30;99.90;;;;;;4992423;28;20037;-59
2022/10/25 04:28:11;;;;;;;8.05;3.78;;;14.30;99.90;;;;;;4998760;28;20113;-59
2022/10/25 04:30:57;;;;;;;8.13;3.72;;;14.30;99.90;;;;;;5012393;28;20029;-60
2022/10/25 04:33:47;;;;;;;8.30;3.55;;;14.30;99.90;;;;;;5012921;28;20038;-58
2022/10/25 04:36:33;;;;;;;10.02;3.90;;;14.20;99.90;;;;;;5012877;28;20026;-60
2022/10/25 04:39:19;;;;;;;9.18;3.97;;;14.20;99.90;;;;;;5012801;28;20060;-61
2022/10/25 04:42:05;;;;;;;11.02;4.30;;;14.20;99.90;;;;;;5012107;28;20042;-62
2022/10/25 04:44:51;;;;;;;7.88;3.70;;;14.30;99.90;;;;;;4997475;28;20407;-60
2022/10/25 04:47:36;;;;;;;8.95;3.92;;;14.20;99.90;;;;;;5011874;28;20430;-60
2022/10/25 04:50:22;;;;;;;9.52;3.97;;;14.10;99.90;;;;;;4997886;28;20030;-55
2022/10/25 04:53:11;;;;;;;8.55;4.13;;;14.10;99.90;;;;;;5011170;28;20072;-59
2022/10/25 04:55:59;;;;;;;11.57;3.70;;;14.20;99.90;;;;;;5010355;28;20045;-56
2022/10/25 04:58:45;;;;;;;7.95;3.83;;;14.20;99.90;;;;;;5008004;28;20046;-54
2022/10/25 05:01:31;;;;;;;8.07;3.80;;;14.20;99.90;;;;;;5005956;28;20403;-54
2022/10/25 05:04:17;;;;;;;6.30;3.22;;;14.20;99.90;;;;;;5010609;28;20030;-52
2022/10/25 05:07:02;;;;;;;11.20;3.95;;;14.30;99.90;;;;;;5009607;28;20161;-58
2022/10/25 05:09:48;;;;;;;8.00;3.60;;;14.20;99.90;;;;;;5011035;28;20034;-56
2022/10/25 05:12:34;;;;;;;9.52;4.03;;;14.30;99.90;;;;;;5009661;28;20117;-59
2022/10/25 05:15:20;;;;;;;15.98;4.20;;;14.30;99.90;;;;;;5011232;28;20049;-56
2022/10/25 05:18:06;;;;;;;8.10;4.00;;;14.30;99.90;;;;;;5011616;28;20629;-58
2022/10/25 05:20:59;;;;;;;12.70;4.00;;;14.30;99.90;;;;;;5009597;28;20034;-58
2022/10/25 05:23:45;;;;;;;8.98;4.13;;;14.30;99.90;;;;;;5009569;28;20050;-56
2022/10/25 05:26:32;;;;;;;8.55;4.22;;;14.30;99.90;;;;;;5011094;28;20030;-58
2022/10/25 05:29:18;;;;;;;9.43;4.10;;;14.30;99.90;;;;;;5009477;28;20482;-59
2022/10/25 05:32:04;;;;;;;13.68;4.45;;;14.30;99.90;;;;;;5010835;28;20541;-54
2022/10/25 05:34:50;;;;;;;7.55;3.28;;;14.30;99.90;;;;;;5011892;28;20530;-56
2022/10/25 05:37:36;;;;;;;8.05;3.90;;;14.30;99.90;;;;;;5011307;28;20494;-54
2022/10/25 05:40:22;;;;;;;8.05;3.40;;;14.30;99.90;;;;;;5011204;28;20036;-59
2022/10/25 05:43:08;;;;;;;30.95;7.05;;;14.40;99.90;;;;;;5021249;28;20038;-57
2022/10/25 05:46:03;;;;;;;10.10;4.13;;;14.40;99.90;;;;;;5017854;28;20022;-62
2022/10/25 05:48:50;;;;;;;7.72;3.10;;;14.30;99.90;;;;;;5007660;28;20059;-62
2022/10/25 05:51:36;;;;;;;10.10;3.75;;;14.30;99.90;;;;;;5007919;28;20037;-60
2022/10/25 05:54:23;;;;;;;9.63;3.50;;;14.40;99.90;;;;;;5011567;28;20072;-59
2022/10/25 05:57:09;;;;;;;7.80;3.13;;;14.30;99.90;;;;;;5009782;28;20450;-61
2022/10/25 05:59:54;;;;;;;29.50;16.20;;;14.40;99.90;;;;;;5007712;28;20037;-58
2022/10/25 06:02:40;;;;;;;10.75;5.75;;;14.40;99.90;;;;;;4992167;28;20038;-58
2022/10/25 06:05:26;;;;;;;7.03;3.45;;;14.40;99.90;;;;;;4996553;28;20038;-60
2022/10/25 06:08:12;;;;;;;7.80;3.47;;;14.40;99.90;;;;;;5010112;28;20038;-60
2022/10/25 06:11:07;;;;;;;9.00;3.08;;;14.40;99.90;;;;;;5010870;28;20433;-59
2022/10/25 06:13:53;;;;;;;12.32;3.70;;;14.40;99.90;;;;;;5011095;28;20125;-60
2022/10/25 06:16:39;;;;;;;9.75;3.38;;;14.40;99.90;;;;;;5009337;28;20096;-62
2022/10/25 06:19:26;;;;;;;11.07;3.75;;;14.40;99.90;;;;;;5010272;28;20026;-56
2022/10/25 06:22:12;;;;;;;5.80;2.80;;;14.50;99.90;;;;;;5011001;28;20033;-56
2022/10/25 06:24:58;;;;;;;10.70;3.45;;;14.50;99.90;;;;;;5011015;28;20036;-60
2022/10/25 06:27:43;;;;;;;10.77;3.30;;;14.50;99.90;;;;;;4964381;28;20057;-61
2022/10/25 06:30:31;;;;;;;8.13;3.00;;;14.50;99.90;;;;;;4994647;28;20502;-61
2022/10/25 06:33:17;;;;;;;4.95;2.95;;;14.50;99.90;;;;;;4995481;28;20044;-64
2022/10/25 06:36:06;;;;;;;8.00;3.00;;;14.50;99.90;;;;;;5010420;28;20026;-59
2022/10/25 06:38:52;;;;;;;13.05;3.83;;;14.60;99.90;;;;;;4995560;28;20497;-60
2022/10/25 06:41:39;;;;;;;7.28;3.55;;;14.60;99.90;;;;;;4997545;28;20038;-58
2022/10/25 06:44:25;;;;;;;16.42;4.38;;;14.60;99.90;;;;;;4991093;28;20033;-61
2022/10/25 06:47:11;;;;;;;9.45;2.95;;;14.70;99.90;;;;;;5008617;28;20244;-60
2022/10/25 06:49:57;;;;;;;5.38;3.10;;;14.60;99.90;;;;;;5010425;28;20113;-61
2022/10/25 06:52:43;;;;;;;9.15;3.22;;;14.70;99.90;;;;;;4990049;28;20037;-61
2022/10/25 06:55:29;;;;;;;5.85;3.10;;;14.80;99.90;;;;;;4993947;28;20501;-61
2022/10/25 06:58:15;;;;;;;11.98;3.47;;;14.80;99.90;;;;;;5010100;28;20033;-61
2022/10/25 07:01:04;;;;;;;10.73;3.53;;;14.80;99.90;;;;;;5010059;28;20026;-61
2022/10/25 07:03:52;;;;;;;8.35;3.13;;;14.80;99.90;;;;;;5010066;28;20061;-57
2022/10/25 07:06:38;;;;;;;9.98;3.70;;;14.80;99.90;;;;;;5010646;28;20045;-59
2022/10/25 07:09:25;;;;;;;8.02;3.53;;;14.80;99.90;;;;;;5011057;28;20680;-60
2022/10/25 07:12:10;;;;;;;11.73;3.67;;;14.80;99.90;;;;;;5011115;28;20332;-63
2022/10/25 07:14:56;;;;;;;13.85;3.70;;;14.80;99.90;;;;;;5010741;28;20084;-58
2022/10/25 07:17:42;;;;;;;12.55;3.92;;;14.70;99.90;;;;;;4991844;28;20058;-60
2022/10/25 07:20:28;;;;;;;8.40;3.88;;;14.80;99.90;;;;;;4975658;28;20133;-60
2022/10/25 07:23:15;;;;;;;17.27;4.22;;;14.90;99.90;;;;;;4991058;28;20059;-60
2022/10/25 07:26:00;;;;;;;5.82;3.50;;;14.90;99.90;;;;;;5010428;28;20101;-60
2022/10/25 07:28:49;;;;;;;11.80;3.45;;;14.80;99.90;;;;;;5029523;28;20034;-56
2022/10/25 07:31:40;;;;;;;8.65;3.35;;;14.90;99.90;;;;;;5028025;28;20135;-60
2022/10/25 07:34:26;;;;;;;14.25;4.13;;;14.80;99.90;;;;;;5014945;28;20053;-59
2022/10/25 07:37:11;;;;;;;8.00;3.35;;;14.90;99.90;;;;;;5014521;28;20042;-60
2022/10/25 07:39:57;;;;;;;8.57;3.60;;;15.00;99.90;;;;;;5000000;28;20037;-60
2022/10/25 07:42:43;;;;;;;12.48;3.42;;;15.10;99.90;;;;;;4995916;28;20026;-60
2022/10/25 07:45:29;;;;;;;10.27;3.97;;;15.10;99.90;;;;;;5012998;28;20045;-62
2022/10/25 07:48:15;;;;;;;9.13;3.05;;;15.10;99.90;;;;;;5014957;28;20461;-60
2022/10/25 07:51:03;;;;;;;6.85;2.95;;;15.10;99.90;;;;;;4994294;28;20104;-59
2022/10/25 07:53:51;;;;;;;8.45;3.25;;;15.10;99.90;;;;;;4996649;28;20085;-59
2022/10/25 07:56:37;;;;;;;9.02;3.30;;;15.10;99.90;;;;;;4999084;28;20026;-60
2022/10/25 07:59:25;;;;;;;9.02;3.03;;;15.10;99.90;;;;;;4999436;28;20026;-60
2022/10/25 08:02:19;;;;;;;6.30;2.90;;;15.20;99.90;;;;;;4999539;28;20568;-60
2022/10/25 08:05:07;;;;;;;8.55;3.00;;;15.20;99.90;;;;;;5014249;28;20080;-57
2022/10/25 08:07:56;;;;;;;7.95;3.00;;;15.10;99.90;;;;;;4987344;28;20510;-58
2022/10/25 08:10:43;;;;;;;7.70;3.40;;;15.10;99.90;;;;;;5015533;28;20597;-61
2022/10/25 08:13:29;;;;;;;11.10;3.17;;;15.10;99.90;;;;;;5015859;28;20661;-60
2022/10/25 08:16:15;;;;;;;4.43;2.78;;;15.10;99.90;;;;;;4994812;28;20041;-63
2022/10/25 08:19:01;;;;;;;6.72;3.22;;;15.10;99.90;;;;;;5011203;28;20184;-60
2022/10/25 08:21:47;;;;;;;11.48;3.55;;;15.10;99.90;;;;;;5013500;28;20118;-61
2022/10/25 08:24:34;;;;;;;8.68;3.40;;;15.10;99.90;;;;;;4993195;28;20029;-60
2022/10/25 08:27:20;;;;;;;5.18;3.08;;;15.20;99.90;;;;;;4999191;28;20093;-58
2022/10/25 08:30:07;;;;;;;7.78;2.80;;;15.20;99.90;;;;;;5015556;28;20034;-60
2022/10/25 08:32:53;;;;;;;9.18;3.10;;;15.30;99.90;;;;;;5012675;28;20022;-60
2022/10/25 08:35:39;;;;;;;6.55;3.30;;;15.30;99.90;;;;;;5016104;28;20121;-57
2022/10/25 08:38:25;;;;;;;8.95;3.38;;;15.50;99.90;;;;;;5013711;28;20029;-62
2022/10/25 08:41:24;;;;;;;10.00;3.65;;;15.50;99.90;;;;;;5006402;28;20022;-58
2022/10/25 08:44:21;;;;;;;7.55;3.20;;;15.50;99.90;;;;;;5014653;28;20654;-59
2022/10/25 08:47:33;;;;;;;9.90;3.08;;;15.50;99.90;;;;;;5017494;28;20026;-61
2022/10/25 08:50:26;;;;;;;7.80;3.40;;;15.50;99.90;;;;;;5017450;28;20044;-59
2022/10/25 08:53:26;;;;;;;8.50;3.13;;;15.60;99.90;;;;;;5020885;28;20098;-59
2022/10/25 08:56:16;;;;;;;8.77;4.10;;;15.50;99.90;;;;;;5012137;28;20462;-60
2022/10/25 08:59:04;;;;;;;6.25;2.88;;;15.50;99.90;;;;;;5017433;28;20026;-56
2022/10/25 09:01:56;;;;;;;9.00;3.28;;;15.50;99.90;;;;;;5014707;28;20080;-55
2022/10/25 09:04:42;;;;;;;7.93;3.33;;;15.60;99.90;;;;;;5017014;28;20033;-54
2022/10/25 09:07:39;;;;;;;8.80;3.22;;;15.50;99.90;;;;;;5005024;28;20040;-55
2022/10/25 09:10:49;;;;;;;7.63;3.60;;;15.40;99.90;;;;;;5023526;28;20041;-60
2022/10/25 09:13:53;;;;;;;9.30;3.63;;;15.60;99.90;;;;;;5030610;28;20021;-63
2022/10/25 09:16:54;;;;;;;11.52;3.05;;;15.60;99.90;;;;;;5029685;28;20673;-57
2022/10/25 09:20:10;;;;;;;7.38;2.80;;;15.50;99.90;;;;;;5017131;28;20084;-60
2022/10/25 09:23:16;;;;;;;7.10;3.10;;;15.60;99.90;;;;;;5010901;28;20025;-58
2022/10/25 09:26:25;;;;;;;6.97;3.28;;;15.60;99.90;;;;;;5014678;28;20394;-61
2022/10/25 09:29:39;;;;;;;9.93;3.63;;;15.60;99.90;;;;;;5011517;28;20030;-60
2022/10/25 09:32:44;;;;;;;11.97;3.00;;;15.50;99.90;;;;;;5005123;28;20099;-63
2022/10/25 09:35:34;;;;;;;10.82;3.47;;;15.50;99.90;;;;;;5014095;28;20033;-57
2022/10/25 09:38:29;;;;;;;9.75;3.38;;;15.60;99.90;;;;;;5017069;28;20224;-63
2022/10/25 09:41:25;;;;;;;7.40;3.25;;;15.70;99.90;;;;;;5017144;28;20030;-59
2022/10/25 09:44:10;;;;;;;;;;;15.60;99.90;;;;;;5015169;28;20028;-59
2022/10/25 09:47:18;;;;;;;9.52;4.07;;;15.60;99.90;;;;;;5013273;28;19932;-60
2022/10/25 09:50:11;;;;;;;8.23;3.40;;;15.50;99.90;;;;;;5017419;28;20071;-58
2022/10/25 09:53:10;;;;;;;7.57;3.60;;;15.50;99.90;;;;;;5010953;28;20050;-62
2022/10/25 09:56:03;;;;;;;6.85;3.40;;;15.50;99.90;;;;;;5013285;28;20026;-62
2022/10/25 09:58:49;;;;;;;9.50;3.45;;;15.60;99.90;;;;;;5008573;28;20029;-61
2022/10/25 10:01:37;;;;;;;9.43;3.45;;;15.60;99.90;;;;;;5011294;28;20018;-59
2022/10/25 10:04:36;;;;;;;6.82;3.08;;;15.50;99.90;;;;;;5010855;28;20189;-59
2022/10/25 10:07:32;;;;;;;6.70;3.00;;;15.40;99.90;;;;;;5010809;28;20037;-62
2022/10/25 10:10:25;;;;;;;6.78;2.70;;;15.50;99.90;;;;;;5009939;28;20033;-61
2022/10/25 10:13:18;;;;;;;6.95;3.20;;;15.60;99.90;;;;;;5013795;28;20466;-61
2022/10/25 10:16:17;;;;;;;10.75;3.05;;;15.70;99.90;;;;;;5016862;28;20037;-62
2022/10/25 10:19:22;;;;;;;9.95;2.83;;;15.80;99.90;;;;;;5012239;28;20018;-59
2022/10/25 10:22:13;;;;;;;8.45;3.50;;;15.80;99.90;;;;;;4993810;28;20409;-60
2022/10/25 10:25:00;;;;;;;10.30;3.50;;;15.90;99.90;;;;;;5001360;28;20080;-60
2022/10/25 10:27:47;;;;;;;5.05;3.05;;;15.90;99.90;;;;;;4993536;28;20070;-60
2022/10/25 10:30:37;;;;;;;7.05;2.88;;;15.90;99.90;;;;;;5012948;28;20454;-61
2022/10/25 10:33:30;;;;;;;6.05;3.00;;;15.80;99.90;;;;;;5015103;28;20033;-60
2022/10/25 10:36:28;;;;;;;10.77;3.80;;;15.90;99.90;;;;;;5002000;28;20037;-60
2022/10/25 10:39:25;;;;;;;8.02;3.15;;;16.00;99.90;;;;;;5014955;28;20002;-59
2022/10/25 10:42:31;;;;;;;11.85;3.17;;;16.10;99.90;;;;;;5030560;28;20033;-60
2022/10/25 10:45:18;;;;;;;5.55;2.60;;;16.10;99.90;;;;;;5021573;28;20040;-61
2022/10/25 10:48:05;;;;;;;7.97;2.97;;;16.20;99.90;;;;;;5008729;28;20022;-58
2022/10/25 10:50:51;;;;;;;7.18;2.80;;;16.20;99.90;;;;;;4995402;28;20049;-61
2022/10/25 10:53:37;;;;;;;6.38;2.65;;;16.30;99.90;;;;;;5000556;28;20022;-61
2022/10/25 10:56:24;;;;;;;8.02;2.78;;;16.20;99.90;;;;;;5016741;28;20462;-61
2022/10/25 10:59:26;;;;;;;5.35;3.08;;;16.30;99.90;;;;;;4999105;28;20030;-61
2022/10/25 11:02:30;;;;;;;8.02;2.90;;;16.30;99.90;;;;;;5007773;28;20132;-58
2022/10/25 11:05:19;;;;;;;4.97;2.58;;;16.30;99.90;;;;;;5000330;28;20538;-61
2022/10/25 11:08:08;;;;;;;7.20;3.00;;;16.30;99.90;;;;;;5013323;28;20168;-64
2022/10/25 11:11:21;;;;;;;5.28;2.70;;;16.20;99.90;;;;;;5017427;28;20018;-60
2022/10/25 11:14:15;;;;;;;4.30;2.58;;;16.20;99.90;;;;;;5016231;28;20141;-60
2022/10/25 11:17:15;;;;;;;6.40;2.75;;;16.30;99.90;;;;;;5012582;28;20724;-60
2022/10/25 11:20:24;;;;;;;7.13;2.72;;;16.30;99.90;;;;;;5015776;28;20013;-61
2022/10/25 11:23:25;;;;;;;8.48;2.90;;;16.40;99.90;;;;;;5016502;28;20022;-61
2022/10/25 11:26:28;;;;;;;6.05;3.05;;;16.40;99.90;;;;;;5016080;28;20018;-59
2022/10/25 11:29:48;;;;;;;9.77;3.28;;;16.50;99.90;;;;;;5013627;28;20061;-61
2022/10/25 11:33:00;;;;;;;8.80;3.20;;;16.60;99.90;;;;;;5013461;28;20025;-60
2022/10/25 11:36:01;;;;;;;6.45;2.90;;;16.60;99.90;;;;;;5015438;28;20025;-61
2022/10/25 11:38:57;;;;;;;4.32;2.42;;;16.60;99.90;;;;;;5003468;28;20033;-59
2022/10/25 11:41:59;;;;;;;7.28;2.58;;;16.70;99.90;;;;;;5015164;28;20025;-59
2022/10/25 11:45:29;;;;;;;7.65;3.80;;;17.00;99.90;;;;;;5014802;28;20516;-53
2022/10/25 11:48:51;;;;;;;14.25;4.35;;;17.00;99.90;;;;;;5020933;28;20049;-58
2022/10/25 11:51:55;;;;;;;9.05;3.17;;;17.20;99.90;;;;;;5033517;28;20108;-55
2022/10/25 11:55:00;;;;;;;4.40;2.77;;;17.30;99.90;;;;;;5033915;28;20064;-59
2022/10/25 11:58:22;;;;;;;5.63;3.05;;;17.50;99.90;;;;;;5030731;28;20308;-59
2022/10/25 12:01:23;;;;;;;9.07;3.25;;;17.30;99.90;;;;;;5012983;28;20609;-59
2022/10/25 12:04:37;;;;;;;6.80;2.95;;;17.30;99.90;;;;;;5013560;28;20574;-55
2022/10/25 12:07:41;;;;;;;7.53;2.65;;;17.40;99.90;;;;;;5013615;28;20033;-52
2022/10/25 12:10:40;;;;;;;5.40;2.70;;;17.40;99.90;;;;;;5007809;28;20438;-56
2022/10/25 12:13:37;;;;;;;7.88;2.80;;;17.30;99.90;;;;;;5018826;28;20430;-60
2022/10/25 12:16:25;;;;;;;5.85;2.67;;;17.30;99.90;;;;;;5014481;28;20503;-58
2022/10/25 12:19:18;;;;;;;6.95;3.05;;;17.30;99.90;;;;;;5012836;28;20018;-59
2022/10/25 12:22:10;;;;;;;7.78;2.70;;;17.40;99.90;;;;;;5013468;28;20034;-56
2022/10/25 12:24:58;;;;;;;6.35;3.33;;;17.30;99.90;;;;;;5014347;28;20113;-62
2022/10/25 12:27:48;;;;;;;4.35;3.03;;;17.40;99.90;;;;;;5007910;28;20069;-59
2022/10/25 12:30:38;;;;;;;6.78;2.80;;;17.40;99.90;;;;;;5011584;28;20034;-59
2022/10/25 12:33:27;;;;;;;5.43;2.88;;;17.50;99.90;;;;;;5003817;28;20033;-57
2022/10/25 12:36:25;;;;;;;6.07;3.22;;;17.70;99.90;;;;;;5013212;28;20022;-59
2022/10/25 12:39:24;;;;;;;6.22;2.70;;;17.80;99.90;;;;;;4999913;28;20423;-59
2022/10/25 12:42:34;;;;;;;9.27;3.03;;;17.70;99.00;;;;;;5013339;28;20029;-59
2022/10/25 12:45:48;;;;;;;5.30;2.28;;;17.60;99.10;;;;;;5012522;28;20069;-66
2022/10/25 12:48:43;;;;;;;9.38;2.72;;;17.40;99.40;;;;;;5000208;28;20034;-58
2022/10/25 12:51:46;;;;;;;4.43;2.20;;;17.70;99.50;;;;;;5012230;28;20048;-58
2022/10/25 12:54:52;;;;;;;6.85;2.53;;;17.80;98.70;;;;;;5012770;28;20121;-56
2022/10/25 12:58:09;;;;;;;5.03;2.38;;;17.70;98.80;;;;;;5012222;28;20057;-57
2022/10/25 13:00:55;;;;;;;7.88;3.08;;;17.90;98.70;;;;;;4995325;28;20109;-59
2022/10/25 13:03:56;;;;;;;5.35;2.47;;;18.00;98.30;;;;;;5012541;28;20069;-56
2022/10/25 13:06:44;;;;;;;6.15;2.30;;;18.10;98.00;;;;;;5012205;28;20033;-59
2022/10/25 13:09:32;;;;;;;6.15;2.45;;;18.30;98.30;;;;;;5012202;28;20045;-61
2022/10/25 13:12:20;;;;;;;4.40;2.50;;;18.30;98.10;;;;;;5001368;28;20098;-67
2022/10/25 13:15:17;;;;;;;4.65;2.50;;;17.90;98.50;;;;;;5002536;28;20034;-61
2022/10/25 13:18:24;;;;;;;4.78;2.30;;;17.70;98.90;;;;;;5010420;28;20034;-59
2022/10/25 13:21:16;;;;;;;5.60;2.65;;;17.50;99.60;;;;;;5011541;28;20033;-56
2022/10/25 13:24:02;;;;;;;6.55;2.75;;;17.60;99.80;;;;;;5009215;28;20621;-61
2022/10/25 13:27:17;;;;;;;4.63;2.33;;;17.90;99.90;;;;;;5011668;28;20041;-56
2022/10/25 13:30:06;;;;;;;7.22;2.72;;;18.20;99.20;;;;;;5009911;28;20022;-56
2022/10/25 13:33:22;;;;;;;8.82;3.10;;;18.30;99.10;;;;;;5018117;28;20108;-59
2022/10/25 13:36:09;;;;;;;5.43;2.42;;;18.20;99.40;;;;;;5012316;28;20170;-56
2022/10/25 13:39:04;;;;;;;6.13;2.63;;;17.80;99.30;;;;;;5010220;28;20042;-59
2022/10/25 13:41:53;;;;;;;3.35;2.50;;;17.30;99.90;;;;;;5011493;28;20486;-55
2022/10/25 13:44:57;;;;;;;8.48;3.38;;;17.30;99.90;;;;;;5011610;28;20018;-55
2022/10/25 13:47:47;;;;;;;6.43;2.95;;;17.20;99.90;;;;;;5011324;28;20040;-59
2022/10/25 13:50:42;;;;;;;4.68;2.92;;;17.20;99.90;;;;;;4997429;28;20030;-61
2022/10/25 13:53:43;;;;;;;6.25;2.85;;;17.20;99.90;;;;;;5087768;27;20900;-59
2022/10/25 13:56:29;;;;;;;4.40;2.40;;;17.50;99.90;;;;;;5067554;28;20021;-60
2022/10/25 13:59:53;;;;;;;4.65;2.50;;;17.90;98.80;;;;;;5105213;28;20027;-64
2022/10/25 14:03:04;;;;;;;4.20;2.92;;;18.10;98.50;;;;;;5108201;28;20086;-58
2022/10/25 14:05:53;;;;;;;4.00;2.55;;;18.60;98.30;;;;;;5106805;28;20023;-61
2022/10/25 14:08:42;;;;;;;4.68;2.20;;;19.00;97.60;;;;;;5106195;28;20028;-62
2022/10/25 14:11:31;;;;;;;6.57;2.65;;;19.10;97.10;;;;;;5092451;28;20028;-60
2022/10/25 14:14:27;;;;;;;6.28;2.60;;;19.00;97.40;;;;;;5086658;28;20059;-60
2022/10/25 14:17:27;;;;;;;6.03;2.67;;;19.40;96.90;;;;;;5061458;28;20039;-61
2022/10/25 14:20:28;;;;;;;3.33;2.40;;;19.90;96.50;;;;;;5087148;28;20540;-59
2022/10/25 14:23:20;;;;;;;7.43;2.90;;;20.30;96.20;;;;;;5084222;28;20092;-63
2022/10/25 14:26:13;;;;;;;7.68;3.17;;;20.80;95.40;;;;;;5070865;28;20060;-59
2022/10/25 14:29:13;;;;;;;7.95;2.95;;;21.10;94.90;;;;;;5085933;28;20024;-60
2022/10/25 14:31:59;;;;;;;6.20;2.50;;;20.90;94.90;;;;;;5086194;28;20024;-61
2022/10/25 14:34:52;;;;;;;8.50;3.10;;;20.70;94.70;;;;;;5092459;28;20029;-63
2022/10/25 14:37:42;;;;;;;6.20;2.60;;;20.80;94.10;;;;;;5061901;28;20090;-62
2022/10/25 14:40:30;;;;;;;6.30;3.20;;;20.60;94.20;;;;;;5090358;28;20393;-62
2022/10/25 14:43:30;;;;;;;8.65;2.97;;;20.10;95.40;;;;;;5082550;28;20086;-61
2022/10/25 14:46:22;;;;;;;4.97;2.85;;;19.70;95.80;;;;;;5084956;28;20500;-63
2022/10/25 14:49:08;;;;;;;7.13;2.83;;;19.00;96.90;;;;;;5086564;28;20024;-59
2022/10/25 14:51:59;;;;;;;5.28;2.70;;;18.50;97.80;;;;;;5084545;28;20107;-62
2022/10/25 14:54:52;;;;;;;7.45;2.80;;;18.10;98.40;;;;;;5085056;28;20116;-60